sensor_id;sensor_type;location;lat;lon;timestamp;pressure;altitude;pressure_sealevel;temperature
68440;BMP180;55421;51.600;5.718;2023-12-04T00:00:06;160049.00;;;-0.46
68440;BMP180;55421;51.600;5.718;2023-12-04T00:02:33;160049.41;;;-0.48
68440;BMP180;55421;51.600;5.718;2023-12-04T00:05:00;160039.80;;;-0.50
68440;BMP180;55421;51.600;5.718;2023-12-04T00:07:26;160046.20;;;-0.50
68440;BMP180;55421;51.600;5.718;2023-12-04T00:09:53;160041.00;;;-0.48
68440;BMP180;55421;51.600;5.718;2023-12-04T00:12:19;160039.80;;;-0.50
68440;BMP180;55421;51.600;5.718;2023-12-04T00:14:46;160039.80;;;-0.50
68440;BMP180;55421;51.600;5.718;2023-12-04T00:17:12;160040.59;;;-0.50
68440;BMP180;55421;51.600;5.718;2023-12-04T00:19:39;160043.00;;;-0.50
68440;BMP180;55421;51.600;5.718;2023-12-04T00:22:05;160041.00;;;-0.50
68440;BMP180;55421;51.600;5.718;2023-12-04T00:24:32;160049.41;;;-0.44
68440;BMP180;55421;51.600;5.718;2023-12-04T00:26:58;160047.00;;;-0.48
68440;BMP180;55421;51.600;5.718;2023-12-04T00:29:25;160053.80;;;-0.40
68440;BMP180;55421;51.600;5.718;2023-12-04T00:31:51;160058.59;;;-0.40
68440;BMP180;55421;51.600;5.718;2023-12-04T00:34:18;160061.00;;;-0.40
68440;BMP180;55421;51.600;5.718;2023-12-04T00:36:44;160065.80;;;-0.40
68440;BMP180;55421;51.600;5.718;2023-12-04T00:39:11;160070.20;;;-0.40
68440;BMP180;55421;51.600;5.718;2023-12-04T00:41:37;160084.20;;;-0.40
68440;BMP180;55421;51.600;5.718;2023-12-04T00:44:04;160090.59;;;-0.38
68440;BMP180;55421;51.600;5.718;2023-12-04T00:46:30;160096.20;;;-0.34
68440;BMP180;55421;51.600;5.718;2023-12-04T00:48:57;160103.80;;;-0.30
68440;BMP180;55421;51.600;5.718;2023-12-04T00:51:23;160107.80;;;-0.30
68440;BMP180;55421;51.600;5.718;2023-12-04T00:53:49;160109.00;;;-0.30
68440;BMP180;55421;51.600;5.718;2023-12-04T00:56:16;160124.59;;;-0.30
68440;BMP180;55421;51.600;5.718;2023-12-04T00:58:42;160126.59;;;-0.30
68440;BMP180;55421;51.600;5.718;2023-12-04T01:01:09;160134.59;;;-0.28
68440;BMP180;55421;51.600;5.718;2023-12-04T01:03:35;160140.20;;;-0.22
68440;BMP180;55421;51.600;5.718;2023-12-04T01:06:03;160144.59;;;-0.20
68440;BMP180;55421;51.600;5.718;2023-12-04T01:08:30;160149.41;;;-0.20
68440;BMP180;55421;51.600;5.718;2023-12-04T01:10:57;160148.59;;;-0.20
68440;BMP180;55421;51.600;5.718;2023-12-04T01:13:23;160152.41;;;-0.20
68440;BMP180;55421;51.600;5.718;2023-12-04T01:15:50;160153.00;;;-0.20
68440;BMP180;55421;51.600;5.718;2023-12-04T01:18:17;160150.59;;;-0.20
68440;BMP180;55421;51.600;5.718;2023-12-04T01:20:44;160145.41;;;-0.20
68440;BMP180;55421;51.600;5.718;2023-12-04T01:23:10;160146.59;;;-0.20
68440;BMP180;55421;51.600;5.718;2023-12-04T01:25:37;160145.41;;;-0.20
68440;BMP180;55421;51.600;5.718;2023-12-04T01:28:03;160139.41;;;-0.20
68440;BMP180;55421;51.600;5.718;2023-12-04T01:30:30;160139.41;;;-0.26
68440;BMP180;55421;51.600;5.718;2023-12-04T01:32:56;160132.59;;;-0.22
68440;BMP180;55421;51.600;5.718;2023-12-04T01:35:23;160139.80;;;-0.22
68440;BMP180;55421;51.600;5.718;2023-12-04T01:37:51;160142.59;;;-0.20
68440;BMP180;55421;51.600;5.718;2023-12-04T01:40:18;160139.00;;;-0.20
68440;BMP180;55421;51.600;5.718;2023-12-04T01:42:44;160135.80;;;-0.24
68440;BMP180;55421;51.600;5.718;2023-12-04T01:45:10;160140.20;;;-0.22
68440;BMP180;55421;51.600;5.718;2023-12-04T01:47:37;160134.59;;;-0.26
68440;BMP180;55421;51.600;5.718;2023-12-04T01:50:06;160130.59;;;-0.30
68440;BMP180;55421;51.600;5.718;2023-12-04T01:52:34;160131.41;;;-0.28
68440;BMP180;55421;51.600;5.718;2023-12-04T01:55:03;160130.59;;;-0.30
68440;BMP180;55421;51.600;5.718;2023-12-04T01:57:29;160131.41;;;-0.26
68440;BMP180;55421;51.600;5.718;2023-12-04T01:59:56;160135.80;;;-0.24
68440;BMP180;55421;51.600;5.718;2023-12-04T02:02:22;160134.59;;;-0.26
68440;BMP180;55421;51.600;5.718;2023-12-04T02:04:49;160132.59;;;-0.26
68440;BMP180;55421;51.600;5.718;2023-12-04T02:07:15;160130.59;;;-0.26
68440;BMP180;55421;51.600;5.718;2023-12-04T02:09:42;160132.59;;;-0.30
68440;BMP180;55421;51.600;5.718;2023-12-04T02:12:08;160137.00;;;-0.22
68440;BMP180;55421;51.600;5.718;2023-12-04T02:14:35;160138.20;;;-0.22
68440;BMP180;55421;51.600;5.718;2023-12-04T02:17:05;160137.80;;;-0.24
68440;BMP180;55421;51.600;5.718;2023-12-04T02:19:32;160142.20;;;-0.20
68440;BMP180;55421;51.600;5.718;2023-12-04T02:21:58;160146.59;;;-0.20
68440;BMP180;55421;51.600;5.718;2023-12-04T02:24:25;160147.41;;;-0.20
68440;BMP180;55421;51.600;5.718;2023-12-04T02:26:58;160151.80;;;-0.20
68440;BMP180;55421;51.600;5.718;2023-12-04T02:29:41;160150.59;;;-0.20
68440;BMP180;55421;51.600;5.718;2023-12-04T02:32:15;160148.59;;;-0.20
68440;BMP180;55421;51.600;5.718;2023-12-04T02:34:44;160146.20;;;-0.20
68440;BMP180;55421;51.600;5.718;2023-12-04T02:37:14;160138.59;;;-0.20
68440;BMP180;55421;51.600;5.718;2023-12-04T02:39:42;160139.00;;;-0.26
68440;BMP180;55421;51.600;5.718;2023-12-04T02:42:09;160133.41;;;-0.24
68440;BMP180;55421;51.600;5.718;2023-12-04T02:44:35;160107.80;;;-0.22
68440;BMP180;55421;51.600;5.718;2023-12-04T02:47:02;160122.20;;;-0.28
68440;BMP180;55421;51.600;5.718;2023-12-04T02:49:28;160120.20;;;-0.30
68440;BMP180;55421;51.600;5.718;2023-12-04T02:51:55;160121.41;;;-0.30
68440;BMP180;55421;51.600;5.718;2023-12-04T02:54:21;160105.00;;;-0.30
68440;BMP180;55421;51.600;5.718;2023-12-04T02:56:48;160108.20;;;-0.30
68440;BMP180;55421;51.600;5.718;2023-12-04T02:59:14;160111.80;;;-0.30
68440;BMP180;55421;51.600;5.718;2023-12-04T03:01:41;160097.80;;;-0.30
68440;BMP180;55421;51.600;5.718;2023-12-04T03:04:07;160100.20;;;-0.30
68440;BMP180;55421;51.600;5.718;2023-12-04T03:06:34;160078.00;;;-0.30
68440;BMP180;55421;51.600;5.718;2023-12-04T03:09:00;160081.59;;;-0.30
68440;BMP180;55421;51.600;5.718;2023-12-04T03:11:27;160088.41;;;-0.30
68440;BMP180;55421;51.600;5.718;2023-12-04T03:13:53;160079.20;;;-0.30
68440;BMP180;55421;51.600;5.718;2023-12-04T03:16:20;160076.80;;;-0.30
68440;BMP180;55421;51.600;5.718;2023-12-04T03:18:46;160018.41;;;-0.30
68440;BMP180;55421;51.600;5.718;2023-12-04T03:21:14;160025.59;;;-0.30
68440;BMP180;55421;51.600;5.718;2023-12-04T03:23:41;159996.80;;;-0.30
68440;BMP180;55421;51.600;5.718;2023-12-04T03:26:09;160001.80;;;-0.30
68440;BMP180;55421;51.600;5.718;2023-12-04T03:28:35;160010.41;;;-0.30
68440;BMP180;55421;51.600;5.718;2023-12-04T03:31:02;159966.20;;;-0.32
68440;BMP180;55421;51.600;5.718;2023-12-04T03:33:28;159873.41;;;-0.30
68440;BMP180;55421;51.600;5.718;2023-12-04T03:35:55;159918.00;;;-0.30
68440;BMP180;55421;51.600;5.718;2023-12-04T03:38:21;159798.00;;;-0.30
68440;BMP180;55421;51.600;5.718;2023-12-04T03:40:48;159529.20;;;-0.38
68440;BMP180;55421;51.600;5.718;2023-12-04T03:43:14;159825.80;;;-0.38
68440;BMP180;55421;51.600;5.718;2023-12-04T03:45:40;159850.59;;;-0.40
68440;BMP180;55421;51.600;5.718;2023-12-04T03:48:07;159922.80;;;-0.40
68440;BMP180;55421;51.600;5.718;2023-12-04T03:50:33;159911.59;;;-0.40
68440;BMP180;55421;51.600;5.718;2023-12-04T03:53:00;159867.59;;;-0.40
68440;BMP180;55421;51.600;5.718;2023-12-04T03:55:26;159904.20;;;-0.40
68440;BMP180;55421;51.600;5.718;2023-12-04T03:57:54;159888.59;;;-0.40
68440;BMP180;55421;51.600;5.718;2023-12-04T04:00:21;159646.41;;;-0.40
68440;BMP180;55421;51.600;5.718;2023-12-04T04:02:47;159771.00;;;-0.40
68440;BMP180;55421;51.600;5.718;2023-12-04T04:05:14;159728.20;;;-0.40
68440;BMP180;55421;51.600;5.718;2023-12-04T04:07:41;159655.80;;;-0.40
68440;BMP180;55421;51.600;5.718;2023-12-04T04:10:08;159663.41;;;-0.40
68440;BMP180;55421;51.600;5.718;2023-12-04T04:12:35;159472.00;;;-0.40
68440;BMP180;55421;51.600;5.718;2023-12-04T04:15:01;159415.00;;;-0.40
68440;BMP180;55421;51.600;5.718;2023-12-04T04:17:28;159448.00;;;-0.40
68440;BMP180;55421;51.600;5.718;2023-12-04T04:19:55;159468.41;;;-0.40
68440;BMP180;55421;51.600;5.718;2023-12-04T04:22:22;159350.41;;;-0.40
68440;BMP180;55421;51.600;5.718;2023-12-04T04:24:49;159178.20;;;-0.40
68440;BMP180;55421;51.600;5.718;2023-12-04T04:27:15;159292.00;;;-0.40
68440;BMP180;55421;51.600;5.718;2023-12-04T04:29:42;159413.59;;;-0.42
68440;BMP180;55421;51.600;5.718;2023-12-04T04:32:08;159368.00;;;-0.42
68440;BMP180;55421;51.600;5.718;2023-12-04T04:34:35;159423.80;;;-0.40
68440;BMP180;55421;51.600;5.718;2023-12-04T04:37:01;159284.00;;;-0.40
68440;BMP180;55421;51.600;5.718;2023-12-04T04:39:28;159414.20;;;-0.40
68440;BMP180;55421;51.600;5.718;2023-12-04T04:41:54;159430.59;;;-0.40
68440;BMP180;55421;51.600;5.718;2023-12-04T04:44:20;159354.80;;;-0.40
68440;BMP180;55421;51.600;5.718;2023-12-04T04:46:47;159414.59;;;-0.40
68440;BMP180;55421;51.600;5.718;2023-12-04T04:49:13;159349.80;;;-0.40
68440;BMP180;55421;51.600;5.718;2023-12-04T04:51:40;159430.59;;;-0.42
68440;BMP180;55421;51.600;5.718;2023-12-04T04:54:06;159388.80;;;-0.42
68440;BMP180;55421;51.600;5.718;2023-12-04T04:56:33;159362.80;;;-0.42
68440;BMP180;55421;51.600;5.718;2023-12-04T04:58:59;159238.80;;;-0.44
68440;BMP180;55421;51.600;5.718;2023-12-04T05:01:26;159300.80;;;-0.48
68440;BMP180;55421;51.600;5.718;2023-12-04T05:03:52;159333.80;;;-0.48
68440;BMP180;55421;51.600;5.718;2023-12-04T05:06:18;159295.20;;;-0.50
68440;BMP180;55421;51.600;5.718;2023-12-04T05:08:45;159191.41;;;-0.48
68440;BMP180;55421;51.600;5.718;2023-12-04T05:11:14;159124.20;;;-0.48
68440;BMP180;55421;51.600;5.718;2023-12-04T05:13:41;159092.80;;;-0.46
68440;BMP180;55421;51.600;5.718;2023-12-04T05:16:08;158726.59;;;-0.44
68440;BMP180;55421;51.600;5.718;2023-12-04T05:18:35;158561.41;;;-0.46
68440;BMP180;55421;51.600;5.718;2023-12-04T05:21:01;158436.20;;;-0.40
68440;BMP180;55421;51.600;5.718;2023-12-04T05:23:28;158406.80;;;-0.44
68440;BMP180;55421;51.600;5.718;2023-12-04T05:25:54;158344.59;;;-0.46
68440;BMP180;55421;51.600;5.718;2023-12-04T05:28:20;158296.00;;;-0.46
68440;BMP180;55421;51.600;5.718;2023-12-04T05:30:47;158392.00;;;-0.40
68440;BMP180;55421;51.600;5.718;2023-12-04T05:33:14;158372.59;;;-0.42
68440;BMP180;55421;51.600;5.718;2023-12-04T05:35:40;158068.00;;;-0.40
68440;BMP180;55421;51.600;5.718;2023-12-04T05:38:06;158208.41;;;-0.40
68440;BMP180;55421;51.600;5.718;2023-12-04T05:40:34;158231.00;;;-0.40
68440;BMP180;55421;51.600;5.718;2023-12-04T05:43:01;158113.20;;;-0.40
68440;BMP180;55421;51.600;5.718;2023-12-04T05:45:27;158002.80;;;-0.40
68440;BMP180;55421;51.600;5.718;2023-12-04T05:47:54;158058.80;;;-0.40
68440;BMP180;55421;51.600;5.718;2023-12-04T05:50:20;157915.20;;;-0.40
68440;BMP180;55421;51.600;5.718;2023-12-04T05:52:47;157393.00;;;-0.40
68440;BMP180;55421;51.600;5.718;2023-12-04T05:55:13;157093.80;;;-0.40
68440;BMP180;55421;51.600;5.718;2023-12-04T05:57:40;157074.00;;;-0.40
68440;BMP180;55421;51.600;5.718;2023-12-04T06:00:07;157089.80;;;-0.40
68440;BMP180;55421;51.600;5.718;2023-12-04T06:02:42;156512.00;;;-0.40
68440;BMP180;55421;51.600;5.718;2023-12-04T06:05:09;156710.41;;;-0.40
68440;BMP180;55421;51.600;5.718;2023-12-04T06:07:37;156813.41;;;-0.40
68440;BMP180;55421;51.600;5.718;2023-12-04T06:10:04;156824.80;;;-0.40
68440;BMP180;55421;51.600;5.718;2023-12-04T06:12:31;156609.00;;;-0.40
68440;BMP180;55421;51.600;5.718;2023-12-04T06:14:58;156675.20;;;-0.40
68440;BMP180;55421;51.600;5.718;2023-12-04T06:17:25;156818.00;;;-0.38
68440;BMP180;55421;51.600;5.718;2023-12-04T06:19:53;156910.41;;;-0.32
68440;BMP180;55421;51.600;5.718;2023-12-04T06:22:20;157261.00;;;-0.30
68440;BMP180;55421;51.600;5.718;2023-12-04T06:24:48;157430.20;;;-0.30
68440;BMP180;55421;51.600;5.718;2023-12-04T06:27:18;157286.80;;;-0.30
68440;BMP180;55421;51.600;5.718;2023-12-04T06:29:48;157162.00;;;-0.30
68440;BMP180;55421;51.600;5.718;2023-12-04T06:32:15;156769.59;;;-0.30
68440;BMP180;55421;51.600;5.718;2023-12-04T06:34:42;156402.59;;;-0.30
68440;BMP180;55421;51.600;5.718;2023-12-04T06:37:10;155592.41;;;-0.30
68440;BMP180;55421;51.600;5.718;2023-12-04T06:39:39;155586.41;;;-0.30
68440;BMP180;55421;51.600;5.718;2023-12-04T06:42:11;155314.20;;;-0.30
68440;BMP180;55421;51.600;5.718;2023-12-04T06:44:38;154911.59;;;-0.30
68440;BMP180;55421;51.600;5.718;2023-12-04T06:47:07;154347.80;;;-0.30
68440;BMP180;55421;51.600;5.718;2023-12-04T06:49:34;154500.00;;;-0.30
68440;BMP180;55421;51.600;5.718;2023-12-04T06:52:01;154056.80;;;-0.30
68440;BMP180;55421;51.600;5.718;2023-12-04T06:54:27;153878.41;;;-0.30
68440;BMP180;55421;51.600;5.718;2023-12-04T06:56:54;153553.20;;;-0.30
68440;BMP180;55421;51.600;5.718;2023-12-04T06:59:21;153150.20;;;-0.30
68440;BMP180;55421;51.600;5.718;2023-12-04T07:01:47;153068.20;;;-0.30
68440;BMP180;55421;51.600;5.718;2023-12-04T07:04:14;153331.80;;;-0.30
68440;BMP180;55421;51.600;5.718;2023-12-04T07:06:47;153338.20;;;-0.30
68440;BMP180;55421;51.600;5.718;2023-12-04T07:09:15;152556.00;;;-0.30
68440;BMP180;55421;51.600;5.718;2023-12-04T07:11:43;152460.20;;;-0.30
68440;BMP180;55421;51.600;5.718;2023-12-04T07:14:10;152476.20;;;-0.30
68440;BMP180;55421;51.600;5.718;2023-12-04T07:16:41;152653.80;;;-0.30
68440;BMP180;55421;51.600;5.718;2023-12-04T07:19:11;152601.59;;;-0.30
68440;BMP180;55421;51.600;5.718;2023-12-04T07:21:40;152311.59;;;-0.30
68440;BMP180;55421;51.600;5.718;2023-12-04T07:24:07;151366.00;;;-0.30
68440;BMP180;55421;51.600;5.718;2023-12-04T07:26:35;151420.59;;;-0.30
68440;BMP180;55421;51.600;5.718;2023-12-04T07:29:02;151028.41;;;-0.30
68440;BMP180;55421;51.600;5.718;2023-12-04T07:31:29;150410.80;;;-0.30
68440;BMP180;55421;51.600;5.718;2023-12-04T07:33:56;149456.80;;;-0.30
68440;BMP180;55421;51.600;5.718;2023-12-04T07:36:23;149110.20;;;-0.30
68440;BMP180;55421;51.600;5.718;2023-12-04T07:38:51;148488.80;;;-0.30
68440;BMP180;55421;51.600;5.718;2023-12-04T07:41:20;146660.80;;;-0.30
68440;BMP180;55421;51.600;5.718;2023-12-04T07:43:47;146341.80;;;-0.26
68440;BMP180;55421;51.600;5.718;2023-12-04T07:46:13;146404.80;;;-0.20
68440;BMP180;55421;51.600;5.718;2023-12-04T07:48:40;145198.80;;;-0.20
68440;BMP180;55421;51.600;5.718;2023-12-04T07:51:07;144412.41;;;-0.20
68440;BMP180;55421;51.600;5.718;2023-12-04T07:53:33;143836.80;;;-0.20
68440;BMP180;55421;51.600;5.718;2023-12-04T07:56:04;142790.80;;;-0.20
68440;BMP180;55421;51.600;5.718;2023-12-04T07:58:31;141879.20;;;-0.20
68440;BMP180;55421;51.600;5.718;2023-12-04T08:00:58;139909.41;;;-0.10
68440;BMP180;55421;51.600;5.718;2023-12-04T08:03:25;138141.00;;;-0.10
68440;BMP180;55421;51.600;5.718;2023-12-04T08:05:52;138311.59;;;-0.10
68440;BMP180;55421;51.600;5.718;2023-12-04T08:08:19;138010.20;;;-0.10
68440;BMP180;55421;51.600;5.718;2023-12-04T08:10:45;137188.41;;;-0.10
68440;BMP180;55421;51.600;5.718;2023-12-04T08:13:12;137059.00;;;0.00
68440;BMP180;55421;51.600;5.718;2023-12-04T08:15:39;136005.80;;;0.00
68440;BMP180;55421;51.600;5.718;2023-12-04T08:18:05;135583.20;;;0.00
68440;BMP180;55421;51.600;5.718;2023-12-04T08:20:32;134113.41;;;0.00
68440;BMP180;55421;51.600;5.718;2023-12-04T08:22:59;132665.00;;;0.00
68440;BMP180;55421;51.600;5.718;2023-12-04T08:25:26;132382.41;;;0.00
68440;BMP180;55421;51.600;5.718;2023-12-04T08:27:52;131136.00;;;0.00
68440;BMP180;55421;51.600;5.718;2023-12-04T08:30:19;131262.20;;;0.06
68440;BMP180;55421;51.600;5.718;2023-12-04T08:32:45;132458.41;;;0.10
68440;BMP180;55421;51.600;5.718;2023-12-04T08:35:12;132082.00;;;0.10
68440;BMP180;55421;51.600;5.718;2023-12-04T08:37:38;127857.20;;;0.10
68440;BMP180;55421;51.600;5.718;2023-12-04T08:40:07;124376.60;;;0.10
68440;BMP180;55421;51.600;5.718;2023-12-04T08:42:34;121023.20;;;0.10
68440;BMP180;55421;51.600;5.718;2023-12-04T08:45:01;119540.60;;;0.10
68440;BMP180;55421;51.600;5.718;2023-12-04T08:47:27;116817.40;;;0.10
68440;BMP180;55421;51.600;5.718;2023-12-04T08:49:54;116819.00;;;0.10
68440;BMP180;55421;51.600;5.718;2023-12-04T08:52:20;116088.00;;;0.10
68440;BMP180;55421;51.600;5.718;2023-12-04T08:54:47;114962.20;;;0.10
68440;BMP180;55421;51.600;5.718;2023-12-04T08:57:13;113324.00;;;0.10
68440;BMP180;55421;51.600;5.718;2023-12-04T08:59:40;112295.20;;;0.10
68440;BMP180;55421;51.600;5.718;2023-12-04T09:02:06;112916.80;;;0.10
68440;BMP180;55421;51.600;5.718;2023-12-04T09:04:33;112780.80;;;0.12
68440;BMP180;55421;51.600;5.718;2023-12-04T09:06:59;111804.80;;;0.16
68440;BMP180;55421;51.600;5.718;2023-12-04T09:09:26;110083.40;;;0.18
68440;BMP180;55421;51.600;5.718;2023-12-04T09:11:52;109345.20;;;0.20
68440;BMP180;55421;51.600;5.718;2023-12-04T09:14:19;108610.60;;;0.20
68440;BMP180;55421;51.600;5.718;2023-12-04T09:16:45;109759.00;;;0.20
68440;BMP180;55421;51.600;5.718;2023-12-04T09:19:12;109687.00;;;0.20
68440;BMP180;55421;51.600;5.718;2023-12-04T09:21:39;106023.40;;;0.20
68440;BMP180;55421;51.600;5.718;2023-12-04T09:24:05;105251.80;;;0.20
68440;BMP180;55421;51.600;5.718;2023-12-04T09:26:32;107386.60;;;0.20
68440;BMP180;55421;51.600;5.718;2023-12-04T09:28:58;112988.40;;;0.20
68440;BMP180;55421;51.600;5.718;2023-12-04T09:31:25;113059.20;;;0.24
68440;BMP180;55421;51.600;5.718;2023-12-04T09:33:51;116172.00;;;0.26
68440;BMP180;55421;51.600;5.718;2023-12-04T09:36:17;117398.40;;;0.30
68440;BMP180;55421;51.600;5.718;2023-12-04T09:38:44;120275.20;;;0.30
68440;BMP180;55421;51.600;5.718;2023-12-04T09:41:12;120634.20;;;0.30
68440;BMP180;55421;51.600;5.718;2023-12-04T09:43:40;121650.80;;;0.30
68440;BMP180;55421;51.600;5.718;2023-12-04T09:46:08;121221.00;;;0.30
68440;BMP180;55421;51.600;5.718;2023-12-04T09:48:37;122205.00;;;0.36
68440;BMP180;55421;51.600;5.718;2023-12-04T09:51:05;120938.20;;;0.38
68440;BMP180;55421;51.600;5.718;2023-12-04T09:53:35;120951.80;;;0.40
68440;BMP180;55421;51.600;5.718;2023-12-04T09:56:03;121641.40;;;0.40
68440;BMP180;55421;51.600;5.718;2023-12-04T09:58:32;121612.40;;;0.40
68440;BMP180;55421;51.600;5.718;2023-12-04T10:01:01;121515.00;;;0.40
68440;BMP180;55421;51.600;5.718;2023-12-04T10:03:28;121705.40;;;0.42
68440;BMP180;55421;51.600;5.718;2023-12-04T10:05:56;120473.40;;;0.50
68440;BMP180;55421;51.600;5.718;2023-12-04T10:08:23;122451.40;;;0.50
68440;BMP180;55421;51.600;5.718;2023-12-04T10:10:49;121895.40;;;0.50
68440;BMP180;55421;51.600;5.718;2023-12-04T10:13:15;122224.80;;;0.50
68440;BMP180;55421;51.600;5.718;2023-12-04T10:15:50;121011.80;;;0.52
68440;BMP180;55421;51.600;5.718;2023-12-04T10:18:31;120328.40;;;0.58
68440;BMP180;55421;51.600;5.718;2023-12-04T10:20:59;121652.00;;;0.60
68440;BMP180;55421;51.600;5.718;2023-12-04T10:23:40;120840.80;;;0.60
68440;BMP180;55421;51.600;5.718;2023-12-04T10:26:07;120923.80;;;0.60
68440;BMP180;55421;51.600;5.718;2023-12-04T10:28:35;121838.00;;;0.60
68440;BMP180;55421;51.600;5.718;2023-12-04T10:31:02;122020.40;;;0.60
68440;BMP180;55421;51.600;5.718;2023-12-04T10:33:29;123583.00;;;0.60
68440;BMP180;55421;51.600;5.718;2023-12-04T10:35:57;124384.00;;;0.60
68440;BMP180;55421;51.600;5.718;2023-12-04T10:38:23;124504.80;;;0.66
68440;BMP180;55421;51.600;5.718;2023-12-04T10:40:50;123553.80;;;0.70
68440;BMP180;55421;51.600;5.718;2023-12-04T10:43:19;122976.40;;;0.70
68440;BMP180;55421;51.600;5.718;2023-12-04T10:45:50;122897.80;;;0.70
68440;BMP180;55421;51.600;5.718;2023-12-04T10:48:19;122532.40;;;0.70
68440;BMP180;55421;51.600;5.718;2023-12-04T10:50:48;122855.80;;;0.70
68440;BMP180;55421;51.600;5.718;2023-12-04T10:53:17;122190.20;;;0.80
68440;BMP180;55421;51.600;5.718;2023-12-04T10:55:45;121737.40;;;0.80
68440;BMP180;55421;51.600;5.718;2023-12-04T10:58:14;120655.80;;;0.80
68440;BMP180;55421;51.600;5.718;2023-12-04T11:00:47;119610.20;;;0.80
68440;BMP180;55421;51.600;5.718;2023-12-04T11:03:47;118921.80;;;0.82
68440;BMP180;55421;51.600;5.718;2023-12-04T11:06:17;119698.60;;;0.90
68440;BMP180;55421;51.600;5.718;2023-12-04T11:08:48;120907.40;;;0.88
68440;BMP180;55421;51.600;5.718;2023-12-04T11:11:36;121486.40;;;0.90
68440;BMP180;55421;51.600;5.718;2023-12-04T11:14:08;121537.60;;;0.90
68440;BMP180;55421;51.600;5.718;2023-12-04T11:16:49;121486.80;;;0.90
68440;BMP180;55421;51.600;5.718;2023-12-04T11:19:39;120552.40;;;0.90
68440;BMP180;55421;51.600;5.718;2023-12-04T11:22:10;120706.20;;;0.90
68440;BMP180;55421;51.600;5.718;2023-12-04T11:24:38;120052.00;;;0.90
68440;BMP180;55421;51.600;5.718;2023-12-04T11:27:05;117497.00;;;0.98
68440;BMP180;55421;51.600;5.718;2023-12-04T11:29:33;117419.40;;;1.00
68440;BMP180;55421;51.600;5.718;2023-12-04T11:32:06;115616.60;;;1.00
68440;BMP180;55421;51.600;5.718;2023-12-04T11:34:35;116124.20;;;1.10
68440;BMP180;55421;51.600;5.718;2023-12-04T11:37:03;117066.40;;;1.10
68440;BMP180;55421;51.600;5.718;2023-12-04T11:39:33;116222.20;;;1.20
68440;BMP180;55421;51.600;5.718;2023-12-04T11:42:00;115801.40;;;1.20
68440;BMP180;55421;51.600;5.718;2023-12-04T11:44:26;115617.60;;;1.20
68440;BMP180;55421;51.600;5.718;2023-12-04T11:47:02;115602.20;;;1.26
68440;BMP180;55421;51.600;5.718;2023-12-04T11:49:30;118177.20;;;1.28
68440;BMP180;55421;51.600;5.718;2023-12-04T11:51:59;117795.00;;;1.30
68440;BMP180;55421;51.600;5.718;2023-12-04T11:54:27;118421.00;;;1.30
68440;BMP180;55421;51.600;5.718;2023-12-04T11:57:21;118099.40;;;1.30
68440;BMP180;55421;51.600;5.718;2023-12-04T11:59:48;117825.60;;;1.30
68440;BMP180;55421;51.600;5.718;2023-12-04T12:02:15;118138.60;;;1.30
68440;BMP180;55421;51.600;5.718;2023-12-04T12:04:43;116394.40;;;1.30
68440;BMP180;55421;51.600;5.718;2023-12-04T12:07:11;116240.20;;;1.30
68440;BMP180;55421;51.600;5.718;2023-12-04T12:09:38;116252.40;;;1.30
68440;BMP180;55421;51.600;5.718;2023-12-04T12:12:05;116771.20;;;1.30
68440;BMP180;55421;51.600;5.718;2023-12-04T12:14:32;118047.20;;;1.30
68440;BMP180;55421;51.600;5.718;2023-12-04T12:17:00;118727.60;;;1.30
68440;BMP180;55421;51.600;5.718;2023-12-04T12:19:27;118545.00;;;1.30
68440;BMP180;55421;51.600;5.718;2023-12-04T12:21:54;118342.00;;;1.30
68440;BMP180;55421;51.600;5.718;2023-12-04T12:24:20;118023.80;;;1.30
68440;BMP180;55421;51.600;5.718;2023-12-04T12:26:47;118556.80;;;1.30
68440;BMP180;55421;51.600;5.718;2023-12-04T12:29:13;118063.60;;;1.30
68440;BMP180;55421;51.600;5.718;2023-12-04T12:31:42;118272.80;;;1.30
68440;BMP180;55421;51.600;5.718;2023-12-04T12:34:09;118242.80;;;1.30
68440;BMP180;55421;51.600;5.718;2023-12-04T12:36:35;117945.20;;;1.30
68440;BMP180;55421;51.600;5.718;2023-12-04T12:39:02;117324.80;;;1.30
68440;BMP180;55421;51.600;5.718;2023-12-04T12:41:31;119211.80;;;1.30
68440;BMP180;55421;51.600;5.718;2023-12-04T12:43:57;119930.40;;;1.30
68440;BMP180;55421;51.600;5.718;2023-12-04T12:46:24;121855.40;;;1.30
68440;BMP180;55421;51.600;5.718;2023-12-04T12:48:51;124349.20;;;1.30
68440;BMP180;55421;51.600;5.718;2023-12-04T12:51:17;125178.20;;;1.30
68440;BMP180;55421;51.600;5.718;2023-12-04T12:53:44;126601.20;;;1.30
68440;BMP180;55421;51.600;5.718;2023-12-04T12:56:11;127278.40;;;1.30
68440;BMP180;55421;51.600;5.718;2023-12-04T12:58:37;127300.40;;;1.28
68440;BMP180;55421;51.600;5.718;2023-12-04T13:01:04;128246.40;;;1.28
68440;BMP180;55421;51.600;5.718;2023-12-04T13:03:30;128461.00;;;1.24
68440;BMP180;55421;51.600;5.718;2023-12-04T13:06:00;129021.60;;;1.22
68440;BMP180;55421;51.600;5.718;2023-12-04T13:08:26;130342.20;;;1.20
68440;BMP180;55421;51.600;5.718;2023-12-04T13:10:53;131598.20;;;1.26
68440;BMP180;55421;51.600;5.718;2023-12-04T13:13:19;132203.00;;;1.26
68440;BMP180;55421;51.600;5.718;2023-12-04T13:15:47;132068.41;;;1.20
68440;BMP180;55421;51.600;5.718;2023-12-04T13:18:14;132917.00;;;1.28
68440;BMP180;55421;51.600;5.718;2023-12-04T13:20:40;134233.00;;;1.30
68440;BMP180;55421;51.600;5.718;2023-12-04T13:23:07;134604.59;;;1.30
68440;BMP180;55421;51.600;5.718;2023-12-04T13:25:33;136156.20;;;1.30
68440;BMP180;55421;51.600;5.718;2023-12-04T13:28:00;136835.00;;;1.30
68440;BMP180;55421;51.600;5.718;2023-12-04T13:30:26;137802.20;;;1.30
68440;BMP180;55421;51.600;5.718;2023-12-04T13:32:53;138323.59;;;1.30
68440;BMP180;55421;51.600;5.718;2023-12-04T13:35:19;139038.80;;;1.30
68440;BMP180;55421;51.600;5.718;2023-12-04T13:37:46;139547.41;;;1.30
68440;BMP180;55421;51.600;5.718;2023-12-04T13:40:12;140354.59;;;1.30
68440;BMP180;55421;51.600;5.718;2023-12-04T13:42:42;141480.00;;;1.28
68440;BMP180;55421;51.600;5.718;2023-12-04T13:45:27;142520.00;;;1.20
68440;BMP180;55421;51.600;5.718;2023-12-04T13:47:53;142042.41;;;1.20
68440;BMP180;55421;51.600;5.718;2023-12-04T13:50:20;142547.41;;;1.20
68440;BMP180;55421;51.600;5.718;2023-12-04T13:52:47;143895.20;;;1.20
68440;BMP180;55421;51.600;5.718;2023-12-04T13:55:23;145008.80;;;1.20
68440;BMP180;55421;51.600;5.718;2023-12-04T13:58:08;146446.59;;;1.20
68440;BMP180;55421;51.600;5.718;2023-12-04T14:00:37;147585.59;;;1.20
68440;BMP180;55421;51.600;5.718;2023-12-04T14:03:04;148897.41;;;1.20